createdAt,value
2018-10-05T00:01:18.242Z,10.53
2018-10-05T00:03:47.291Z,14.03
2018-10-05T00:06:15.521Z,12.57
2018-10-05T00:08:43.711Z,10.63
2018-10-05T00:11:11.894Z,13.00
2018-10-05T00:13:40.083Z,13.20
2018-10-05T00:16:08.307Z,11.30
2018-10-05T00:18:36.495Z,12.50
2018-10-05T00:21:04.687Z,12.77
2018-10-05T00:23:32.880Z,11.43
2018-10-05T00:26:01.080Z,10.63
2018-10-05T00:28:29.292Z,13.77
2018-10-05T00:30:57.536Z,10.43
2018-10-05T00:33:25.751Z,14.53
2018-10-05T00:35:53.955Z,11.30
2018-10-05T00:38:22.144Z,13.90
2018-10-05T00:40:55.215Z,10.17
2018-10-05T00:43:23.936Z,13.93
2018-10-05T00:45:52.106Z,12.23
2018-10-05T00:48:20.295Z,16.73
2018-10-05T00:50:48.508Z,8.93
2018-10-05T00:53:16.725Z,12.17
2018-10-05T00:55:44.928Z,10.00
2018-10-05T00:58:13.111Z,13.30
2018-10-05T01:00:41.295Z,13.63
2018-10-05T01:03:09.533Z,9.97
2018-10-05T01:05:37.747Z,11.83
2018-10-05T01:08:06.084Z,14.10
2018-10-05T01:10:34.275Z,11.17
2018-10-05T01:13:02.451Z,12.30
2018-10-05T01:15:30.643Z,12.40
2018-10-05T01:17:58.823Z,9.97
2018-10-05T01:20:27.007Z,11.83
2018-10-05T01:22:55.175Z,10.13
2018-10-05T01:25:23.364Z,11.00
2018-10-05T01:27:51.531Z,11.37
2018-10-05T01:30:19.719Z,13.07
2018-10-05T01:32:47.887Z,13.03
2018-10-05T01:35:16.083Z,15.37
2018-10-05T01:37:44.299Z,12.07
2018-10-05T01:40:12.556Z,13.90
2018-10-05T01:42:40.811Z,12.20
2018-10-05T01:45:09.070Z,14.23
2018-10-05T01:47:37.263Z,11.27
2018-10-05T01:50:05.458Z,14.47
2018-10-05T01:52:33.643Z,14.93
2018-10-05T01:55:01.840Z,11.10
2018-10-05T01:57:30.039Z,15.87
2018-10-05T01:59:58.236Z,12.70
2018-10-05T02:02:26.438Z,14.40
2018-10-05T02:04:54.631Z,11.50
2018-10-05T02:07:22.843Z,14.70
2018-10-05T02:09:51.035Z,13.60
2018-10-05T02:12:19.264Z,13.20
2018-10-05T02:14:47.494Z,14.07
2018-10-05T02:17:15.704Z,11.47
2018-10-05T02:19:43.902Z,12.37
2018-10-05T02:22:12.103Z,11.73
2018-10-05T02:24:40.296Z,14.90
2018-10-05T02:27:08.482Z,12.90
2018-10-05T02:29:36.671Z,13.30
2018-10-05T02:32:04.893Z,13.83
2018-10-05T02:34:33.083Z,12.73
2018-10-05T02:37:01.300Z,13.77
2018-10-05T02:39:29.507Z,15.87
2018-10-05T02:41:57.711Z,13.73
2018-10-05T02:44:25.890Z,13.80
2018-10-05T02:46:54.139Z,16.57
2018-10-05T02:49:22.377Z,13.83
2018-10-05T02:51:50.588Z,14.63
2018-10-05T02:54:18.774Z,13.67
2018-10-05T02:56:46.982Z,12.50
2018-10-05T02:59:15.164Z,13.03
2018-10-05T03:01:54.939Z,12.90
2018-10-05T03:04:23.123Z,12.33
2018-10-05T03:06:51.334Z,15.07
2018-10-05T03:09:19.554Z,11.33
2018-10-05T03:11:47.759Z,13.73
2018-10-05T03:14:15.948Z,12.23
2018-10-05T03:16:44.139Z,13.00
2018-10-05T03:19:12.518Z,12.37
2018-10-05T03:21:40.756Z,12.30
2018-10-05T03:24:08.956Z,12.47
2018-10-05T03:26:37.174Z,11.70
2018-10-05T03:29:05.415Z,11.37
2018-10-05T03:31:33.591Z,12.30
2018-10-05T03:34:01.792Z,12.43
2018-10-05T03:36:30.247Z,11.77
2018-10-05T03:38:58.438Z,12.13
2018-10-05T03:41:26.622Z,12.70
2018-10-05T03:43:54.803Z,12.13
2018-10-05T03:46:22.984Z,11.87
2018-10-05T03:48:51.162Z,12.77
2018-10-05T03:51:19.366Z,12.00
2018-10-05T03:53:47.580Z,12.37
2018-10-05T03:56:15.806Z,11.20
2018-10-05T03:58:44.034Z,11.03
2018-10-05T04:01:12.231Z,10.97
2018-10-05T04:03:40.423Z,11.53
2018-10-05T04:06:08.611Z,14.17
2018-10-05T04:08:36.835Z,15.40
2018-10-05T04:11:05.020Z,11.73
2018-10-05T04:13:33.251Z,11.13
2018-10-05T04:16:01.444Z,12.33
2018-10-05T04:18:29.656Z,11.23
2018-10-05T04:20:57.848Z,12.57
2018-10-05T04:23:26.066Z,16.03
2018-10-05T04:25:54.268Z,15.30
2018-10-05T04:28:22.487Z,17.13
2018-10-05T04:30:50.751Z,11.53
2018-10-05T04:33:18.968Z,14.23
2018-10-05T04:35:47.220Z,14.10
2018-10-05T04:38:15.367Z,14.43
2018-10-05T04:40:43.563Z,13.77
2018-10-05T04:43:11.812Z,13.97
2018-10-05T04:45:40.000Z,16.57
2018-10-05T04:48:08.195Z,12.83
2018-10-05T04:50:36.391Z,13.97
2018-10-05T04:53:04.599Z,15.87
2018-10-05T04:55:32.804Z,15.70
2018-10-05T04:58:01.011Z,13.00
2018-10-05T05:00:29.219Z,11.97
2018-10-05T05:02:57.401Z,11.90
2018-10-05T05:05:25.674Z,11.80
2018-10-05T05:07:53.889Z,13.73
2018-10-05T05:10:22.096Z,16.13
2018-10-05T05:12:50.283Z,15.40
2018-10-05T05:15:18.470Z,20.23
2018-10-05T05:17:46.662Z,17.70
2018-10-05T05:20:14.855Z,17.60
2018-10-05T05:22:43.394Z,16.83
2018-10-05T05:25:11.604Z,17.13
2018-10-05T05:27:39.784Z,15.10
2018-10-05T05:30:08.215Z,18.50
2018-10-05T05:32:36.411Z,17.63
2018-10-05T05:35:04.635Z,14.37
2018-10-05T05:37:32.815Z,14.00
2018-10-05T05:40:01.023Z,14.17
2018-10-05T05:42:29.256Z,15.40
2018-10-05T05:44:57.447Z,16.93
2018-10-05T05:47:25.637Z,14.53
2018-10-05T05:49:53.850Z,15.87
2018-10-05T05:52:22.089Z,18.13
2018-10-05T05:54:50.723Z,15.90
2018-10-05T05:57:19.645Z,22.70
2018-10-05T05:59:47.820Z,28.43
2018-10-05T06:02:16.064Z,29.40
2018-10-05T06:04:44.255Z,25.23
2018-10-05T06:07:12.444Z,20.90
2018-10-05T06:09:40.657Z,21.23
2018-10-05T06:12:08.816Z,19.33
2018-10-05T06:14:37.011Z,19.03
2018-10-05T06:17:05.225Z,22.43
2018-10-05T06:19:33.428Z,19.77
2018-10-05T06:22:01.727Z,16.57
2018-10-05T06:24:29.780Z,16.10
2018-10-05T06:26:58.061Z,13.20
2018-10-05T06:29:26.383Z,14.07
2018-10-05T06:31:54.579Z,18.70
2018-10-05T06:34:22.770Z,17.47
2018-10-05T06:36:51.407Z,13.73
2018-10-05T06:39:19.566Z,18.97
2018-10-05T06:41:47.773Z,14.03
2018-10-05T06:44:15.946Z,14.67
2018-10-05T06:46:44.135Z,15.67
2018-10-05T06:49:12.314Z,15.60
2018-10-05T06:51:40.512Z,16.53
2018-10-05T06:54:08.734Z,12.10
2018-10-05T06:56:36.946Z,11.43
2018-10-05T06:59:05.165Z,11.43
2018-10-05T07:01:33.458Z,18.93
2018-10-05T07:04:01.534Z,12.47
2018-10-05T07:06:29.733Z,13.20
2018-10-05T07:08:57.918Z,14.90
2018-10-05T07:11:26.161Z,16.33
2018-10-05T07:13:54.307Z,12.17
2018-10-05T07:16:22.518Z,12.83
2018-10-05T07:18:50.714Z,16.60
2018-10-05T07:21:18.953Z,17.30
2018-10-05T07:23:47.086Z,13.33
2018-10-05T07:26:15.282Z,11.97
2018-10-05T07:28:43.483Z,12.20
2018-10-05T07:31:11.705Z,15.17
2018-10-05T07:33:39.931Z,12.33
2018-10-05T07:36:08.159Z,11.13
2018-10-05T07:38:36.354Z,12.63
2018-10-05T07:41:04.553Z,13.90
2018-10-05T07:43:32.743Z,12.80
2018-10-05T07:46:00.944Z,15.93
2018-10-05T07:48:29.122Z,15.93
2018-10-05T07:50:57.319Z,15.00
2018-10-05T07:53:25.518Z,10.50
2018-10-05T07:55:53.702Z,12.33
2018-10-05T07:58:21.904Z,12.80
2018-10-05T08:00:50.097Z,13.60
2018-10-05T08:03:18.274Z,11.80
2018-10-05T08:05:46.483Z,12.00
2018-10-05T08:08:14.717Z,17.93
2018-10-05T08:10:42.972Z,14.17
2018-10-05T08:13:11.176Z,11.53
2018-10-05T08:15:39.387Z,12.90
2018-10-05T08:18:07.573Z,12.17
2018-10-05T08:20:35.760Z,14.63
2018-10-05T08:23:03.956Z,12.30
2018-10-05T08:25:32.139Z,14.20
2018-10-05T08:28:00.363Z,12.30
2018-10-05T08:30:28.523Z,14.30
2018-10-05T08:32:56.720Z,15.20
2018-10-05T08:35:24.902Z,14.67
2018-10-05T08:37:53.122Z,13.13
2018-10-05T08:40:21.389Z,13.30
2018-10-05T08:42:49.536Z,13.53
2018-10-05T08:45:17.788Z,14.70
2018-10-05T08:47:46.007Z,14.37
2018-10-05T08:50:14.228Z,15.20
2018-10-05T08:52:42.440Z,14.57
2018-10-05T08:55:10.635Z,15.83
2018-10-05T08:57:38.854Z,16.33
2018-10-05T09:00:07.184Z,11.40
2018-10-05T09:02:35.309Z,13.83
2018-10-05T09:05:03.526Z,15.93
2018-10-05T09:07:31.724Z,12.07
2018-10-05T09:09:59.910Z,13.73
2018-10-05T09:12:28.111Z,10.67
2018-10-05T09:14:56.324Z,15.20
2018-10-05T09:17:24.511Z,11.83
2018-10-05T09:19:52.701Z,15.40
2018-10-05T09:22:20.895Z,14.47
2018-10-05T09:24:49.099Z,12.47
2018-10-05T09:27:17.304Z,18.10
2018-10-05T09:29:45.899Z,14.63
2018-10-05T09:32:14.149Z,11.30
2018-10-05T09:34:42.379Z,13.93
2018-10-05T09:37:10.596Z,10.43
2018-10-05T09:39:39.128Z,14.00
2018-10-05T09:42:07.534Z,14.70
2018-10-05T09:44:35.759Z,11.37
2018-10-05T09:47:04.118Z,12.27
2018-10-05T09:49:32.320Z,10.93
2018-10-05T09:52:00.518Z,14.23
2018-10-05T09:54:28.724Z,11.40
2018-10-05T09:56:56.894Z,14.70
2018-10-05T09:59:25.082Z,9.17
2018-10-05T10:01:58.710Z,12.30
2018-10-05T10:04:26.914Z,10.63
2018-10-05T10:06:55.323Z,9.70
2018-10-05T10:09:23.522Z,12.30
2018-10-05T10:11:51.729Z,10.10
2018-10-05T10:14:19.961Z,12.60
2018-10-05T10:16:48.164Z,10.33
2018-10-05T10:19:16.364Z,12.30
2018-10-05T10:21:44.539Z,9.23
2018-10-05T10:24:12.723Z,8.37
2018-10-05T10:26:40.906Z,8.90
2018-10-05T10:29:09.206Z,6.40
2018-10-05T10:31:37.274Z,6.77
2018-10-05T10:34:05.459Z,8.47
2018-10-05T10:36:33.641Z,5.60
2018-10-05T10:39:01.823Z,6.03
2018-10-05T10:41:30.000Z,4.50
2018-10-05T10:43:58.168Z,5.10
2018-10-05T10:46:26.336Z,4.43
2018-10-05T10:48:54.541Z,6.97
2018-10-05T10:51:22.737Z,5.80
2018-10-05T10:53:50.959Z,5.63
2018-10-05T10:56:19.160Z,4.90
2018-10-05T10:58:47.266Z,4.50
2018-10-05T11:01:15.431Z,5.13
2018-10-05T11:03:43.599Z,5.80
2018-10-05T11:06:11.775Z,4.90
2018-10-05T11:08:39.938Z,3.33
2018-10-05T11:11:08.177Z,5.93
2018-10-05T11:13:36.291Z,4.00
2018-10-05T11:16:04.476Z,4.50
2018-10-05T11:18:32.642Z,5.97
2018-10-05T11:21:00.816Z,4.80
2018-10-05T11:23:29.303Z,4.17
2018-10-05T11:25:57.599Z,8.13
2018-10-05T11:28:25.784Z,4.80
2018-10-05T11:30:54.782Z,6.67
2018-10-05T11:33:23.010Z,5.90
2018-10-05T11:35:51.188Z,4.53
2018-10-05T11:38:19.363Z,4.60
2018-10-05T11:40:47.606Z,4.50
2018-10-05T11:43:15.732Z,3.67
2018-10-05T11:45:43.920Z,4.77
2018-10-05T11:48:12.087Z,4.63
2018-10-05T11:50:40.291Z,4.87
2018-10-05T11:53:08.454Z,3.90
2018-10-05T11:55:36.631Z,9.93
2018-10-05T11:58:04.791Z,4.40
2018-10-05T12:00:32.971Z,6.07
2018-10-05T12:03:01.152Z,5.27
2018-10-05T12:05:29.343Z,3.67
2018-10-05T12:07:57.507Z,5.67
2018-10-05T12:10:25.683Z,3.77
2018-10-05T12:12:53.888Z,4.57
2018-10-05T12:15:22.097Z,4.23
2018-10-05T12:17:50.274Z,5.37
2018-10-05T12:20:18.444Z,7.77
2018-10-05T12:22:46.602Z,4.33
2018-10-05T12:25:14.775Z,5.50
2018-10-05T12:27:42.942Z,7.13
2018-10-05T12:30:11.153Z,4.07
2018-10-05T12:32:39.279Z,4.47
2018-10-05T12:35:07.443Z,3.10
2018-10-05T12:37:35.603Z,4.70
2018-10-05T12:40:03.792Z,5.17
2018-10-05T12:42:32.287Z,4.83
2018-10-05T12:45:01.170Z,3.90
2018-10-05T12:47:29.346Z,3.13
2018-10-05T12:49:57.592Z,3.10
2018-10-05T12:52:25.828Z,3.33
2018-10-05T12:54:54.048Z,5.03
2018-10-05T12:57:22.307Z,5.83
2018-10-05T12:59:50.491Z,2.60
2018-10-05T13:02:18.694Z,3.83
2018-10-05T13:04:46.928Z,5.37
2018-10-05T13:07:15.130Z,4.53
2018-10-05T13:09:43.319Z,5.92
2018-10-05T13:12:11.511Z,5.00
2018-10-05T13:14:39.700Z,4.57
2018-10-05T13:17:07.902Z,2.83
2018-10-05T13:19:36.083Z,2.70
2018-10-05T13:22:04.300Z,2.87
2018-10-05T13:24:32.524Z,3.73
2018-10-05T13:27:00.683Z,12.50
2018-10-05T13:29:28.879Z,3.22
2018-10-05T13:31:57.074Z,3.20
2018-10-05T13:34:25.268Z,5.37
2018-10-05T13:36:53.496Z,3.97
2018-10-05T13:39:21.729Z,7.30
2018-10-05T13:41:50.082Z,4.17
2018-10-05T13:44:18.167Z,2.10
2018-10-05T13:46:46.421Z,2.15
2018-10-05T13:49:14.603Z,4.37
2018-10-05T13:51:42.803Z,5.58
2018-10-05T13:54:11.258Z,4.28
2018-10-05T13:56:39.463Z,4.20
2018-10-05T13:59:07.787Z,3.83
2018-10-05T14:01:36.469Z,5.13
2018-10-05T14:04:05.181Z,4.50
2018-10-05T14:06:33.395Z,2.00
2018-10-05T14:09:01.901Z,1.50
2018-10-05T14:11:30.096Z,3.62
2018-10-05T14:13:58.282Z,2.10
2018-10-05T14:16:26.476Z,2.08
2018-10-05T14:18:54.654Z,3.10
2018-10-05T14:21:22.863Z,2.90
2018-10-05T14:23:51.081Z,7.47
2018-10-05T14:26:19.277Z,4.22
2018-10-05T14:28:47.463Z,2.13
2018-10-05T14:31:15.651Z,1.77
2018-10-05T14:33:43.846Z,2.23
2018-10-05T14:36:12.024Z,2.40
2018-10-05T14:38:40.223Z,1.80
2018-10-05T14:41:08.406Z,2.53
2018-10-05T14:43:36.575Z,2.63
2018-10-05T14:46:04.804Z,1.87
2018-10-05T14:48:33.016Z,1.70
2018-10-05T14:51:01.188Z,4.20
2018-10-05T14:53:30.172Z,2.33
2018-10-05T14:55:58.567Z,1.80
2018-10-05T14:58:27.003Z,1.83
2018-10-05T15:00:55.232Z,2.50
2018-10-05T15:03:23.452Z,3.17
2018-10-05T15:05:51.639Z,2.67
2018-10-05T15:08:19.819Z,2.20
2018-10-05T15:10:47.983Z,2.50
2018-10-05T15:13:16.227Z,2.47
2018-10-05T15:15:44.327Z,2.73
2018-10-05T15:18:12.507Z,2.33
2018-10-05T15:20:40.684Z,2.93
2018-10-05T15:23:08.891Z,2.53
2018-10-05T15:25:37.061Z,7.20
2018-10-05T15:28:05.239Z,3.00
2018-10-05T15:30:33.411Z,3.87
2018-10-05T15:33:01.628Z,3.00
2018-10-05T15:35:29.799Z,2.53
2018-10-05T15:37:57.974Z,2.60
2018-10-05T15:40:26.176Z,2.50
2018-10-05T15:42:54.404Z,3.23
2018-10-05T15:45:22.579Z,3.63
2018-10-05T15:47:50.763Z,3.70
2018-10-05T15:50:18.927Z,4.10
2018-10-05T15:52:47.137Z,3.80
2018-10-05T15:55:15.266Z,6.97
2018-10-05T15:57:43.435Z,2.40
2018-10-05T16:00:11.611Z,3.07
2018-10-05T16:02:39.782Z,3.10
2018-10-05T16:05:07.967Z,3.30
2018-10-05T16:07:36.156Z,3.57
2018-10-05T16:10:04.343Z,4.80
2018-10-05T16:12:32.527Z,4.00
2018-10-05T16:15:00.694Z,5.77
2018-10-05T16:17:28.866Z,3.97
2018-10-05T16:19:57.088Z,5.27
2018-10-05T16:22:25.461Z,3.50
2018-10-05T16:24:53.714Z,3.10
2018-10-05T16:27:21.907Z,3.47
2018-10-05T16:29:50.088Z,7.03
2018-10-05T16:32:18.247Z,3.83
2018-10-05T16:34:46.419Z,4.50
2018-10-05T16:37:14.631Z,4.47
2018-10-05T16:39:42.767Z,6.70
2018-10-05T16:42:10.943Z,3.70
2018-10-05T16:44:39.149Z,5.93
2018-10-05T16:47:07.321Z,3.70
2018-10-05T16:49:35.500Z,4.70
2018-10-05T16:52:03.729Z,9.57
2018-10-05T16:54:32.819Z,4.97
2018-10-05T16:57:01.283Z,4.63
2018-10-05T16:59:29.866Z,3.47
2018-10-05T17:01:58.126Z,4.43
2018-10-05T17:04:26.340Z,6.57
2018-10-05T17:06:54.625Z,4.80
2018-10-05T17:09:22.812Z,4.83
2018-10-05T17:11:51.384Z,6.83
2018-10-05T17:14:19.571Z,5.77
2018-10-05T17:16:47.756Z,4.37
2018-10-05T17:19:15.955Z,8.10
2018-10-05T17:21:44.135Z,9.00
2018-10-05T17:24:12.312Z,45.30
2018-10-05T17:26:47.213Z,72.73
2018-10-05T17:29:17.118Z,20.43
2018-10-05T17:31:45.487Z,35.87
2018-10-05T17:34:13.882Z,22.80
2018-10-05T17:36:42.340Z,42.30
2018-10-05T17:39:11.715Z,33.60
2018-10-05T17:41:40.833Z,29.50
2018-10-05T17:44:10.839Z,23.93
2018-10-05T17:46:39.419Z,24.33
2018-10-05T17:49:07.928Z,27.17
2018-10-05T17:51:37.197Z,22.73
2018-10-05T17:54:05.710Z,13.10
2018-10-05T17:56:34.807Z,14.40
2018-10-05T17:59:03.482Z,10.20
2018-10-05T18:01:31.968Z,11.70
2018-10-05T18:04:00.374Z,8.77
2018-10-05T18:06:28.829Z,10.03
2018-10-05T18:08:57.950Z,8.60
2018-10-05T18:11:27.833Z,7.33
2018-10-05T18:13:56.988Z,9.70
2018-10-05T18:16:25.526Z,7.63
2018-10-05T18:18:54.012Z,9.80
2018-10-05T18:21:22.816Z,7.70
2018-10-05T18:23:51.319Z,9.97
2018-10-05T18:26:19.720Z,10.30
2018-10-05T18:28:48.296Z,9.60
2018-10-05T18:31:16.625Z,10.57
2018-10-05T18:33:45.250Z,10.90
2018-10-05T18:36:14.089Z,10.17
2018-10-05T18:38:42.444Z,8.73
2018-10-05T18:41:10.848Z,11.33
2018-10-05T18:43:39.749Z,8.53
2018-10-05T18:46:08.616Z,10.67
2018-10-05T18:48:37.060Z,11.60
2018-10-05T18:51:05.680Z,9.57
2018-10-05T18:53:36.059Z,11.37
2018-10-05T18:56:15.875Z,8.63
2018-10-05T18:58:44.702Z,10.97
2018-10-05T19:01:13.945Z,11.07
2018-10-05T19:03:42.535Z,10.83
2018-10-05T19:06:11.674Z,12.47
2018-10-05T19:08:40.261Z,13.30
2018-10-05T19:11:09.025Z,11.50
2018-10-05T19:13:37.810Z,14.57
2018-10-05T19:16:06.758Z,11.10
2018-10-05T19:18:35.166Z,12.87
2018-10-05T19:21:05.330Z,16.67
2018-10-05T19:23:34.500Z,14.20
2018-10-05T19:26:03.067Z,11.23
2018-10-05T19:28:31.365Z,13.00
2018-10-05T19:31:01.575Z,10.03
2018-10-05T19:33:29.971Z,13.53
2018-10-05T19:35:58.327Z,13.80
2018-10-05T19:38:26.761Z,13.07
2018-10-05T19:40:55.253Z,14.70
2018-10-05T19:43:23.639Z,11.00
2018-10-05T19:45:51.918Z,17.77
2018-10-05T19:48:20.356Z,13.70
2018-10-05T19:50:48.657Z,13.33
2018-10-05T19:53:17.109Z,13.30
2018-10-05T19:55:45.234Z,10.33
2018-10-05T19:58:13.596Z,13.63
2018-10-05T20:00:41.879Z,13.07
2018-10-05T20:03:10.692Z,12.30
2018-10-05T20:05:39.007Z,12.13
2018-10-05T20:08:07.261Z,12.03
2018-10-05T20:10:35.450Z,12.80
2018-10-05T20:13:03.819Z,13.27
2018-10-05T20:15:32.060Z,11.07
2018-10-05T20:18:00.482Z,13.23
2018-10-05T20:20:28.475Z,13.53
2018-10-05T20:22:56.703Z,17.47
2018-10-05T20:25:24.916Z,26.33
2018-10-05T20:27:53.119Z,30.03
2018-10-05T20:30:21.327Z,20.37
2018-10-05T20:32:49.535Z,19.83
2018-10-05T20:35:17.735Z,24.03
2018-10-05T20:37:46.110Z,32.13
2018-10-05T20:40:14.197Z,23.33
2018-10-05T20:42:42.478Z,17.83
2018-10-05T20:45:10.691Z,17.03
2018-10-05T20:47:42.332Z,15.27
2018-10-05T20:50:11.036Z,17.77
2018-10-05T20:52:39.647Z,13.80
2018-10-05T20:55:08.654Z,13.17
2018-10-05T20:57:36.859Z,14.13
2018-10-05T21:00:05.744Z,14.43
2018-10-05T21:02:34.420Z,14.27
2018-10-05T21:05:02.949Z,14.90
2018-10-05T21:07:31.558Z,16.13
2018-10-05T21:10:00.404Z,15.90
2018-10-05T21:12:28.695Z,14.97
2018-10-05T21:14:56.946Z,24.73
2018-10-05T21:17:26.698Z,19.00
2018-10-05T21:19:55.036Z,18.80
2018-10-05T21:22:23.477Z,15.63
2018-10-05T21:24:51.804Z,16.30
2018-10-05T21:27:20.066Z,18.27
2018-10-05T21:29:48.319Z,19.83
2018-10-05T21:32:16.685Z,16.40
2018-10-05T21:34:45.038Z,15.83
2018-10-05T21:37:13.251Z,15.17
2018-10-05T21:39:41.489Z,14.70
2018-10-05T21:42:09.687Z,15.17
2018-10-05T21:44:38.089Z,14.73
2018-10-05T21:47:06.542Z,13.73
2018-10-05T21:49:34.796Z,15.10
2018-10-05T21:52:03.061Z,12.00
2018-10-05T21:54:31.315Z,15.27
2018-10-05T21:56:59.650Z,13.87
2018-10-05T21:59:27.935Z,14.10
2018-10-05T22:01:56.122Z,13.67
2018-10-05T22:04:24.355Z,15.13
2018-10-05T22:06:52.651Z,12.80
2018-10-05T22:09:21.068Z,13.57
2018-10-05T22:11:49.263Z,12.20
2018-10-05T22:14:17.579Z,17.13
2018-10-05T22:16:45.849Z,14.13
2018-10-05T22:19:14.039Z,11.73
2018-10-05T22:21:42.231Z,13.47
2018-10-05T22:24:10.419Z,11.30
2018-10-05T22:26:38.687Z,13.47
2018-10-05T22:29:06.887Z,15.53
2018-10-05T22:31:35.080Z,13.40
2018-10-05T22:34:03.276Z,12.53
2018-10-05T22:36:31.451Z,11.30
2018-10-05T22:38:59.647Z,12.27
2018-10-05T22:41:27.822Z,12.40
2018-10-05T22:43:56.958Z,13.70
2018-10-05T22:46:25.131Z,13.23
2018-10-05T22:48:53.332Z,13.50
2018-10-05T22:51:21.510Z,16.90
2018-10-05T22:53:49.675Z,10.80
2018-10-05T22:56:17.850Z,13.10
2018-10-05T22:58:46.172Z,14.33
2018-10-05T23:01:14.413Z,12.80
2018-10-05T23:03:42.620Z,12.93
2018-10-05T23:06:10.829Z,12.90
2018-10-05T23:08:39.024Z,10.63
2018-10-05T23:11:07.330Z,12.80
2018-10-05T23:13:35.503Z,11.63
2018-10-05T23:16:03.734Z,12.20
2018-10-05T23:18:31.920Z,12.67
2018-10-05T23:21:00.136Z,10.23
2018-10-05T23:23:28.317Z,11.33
2018-10-05T23:25:56.495Z,13.13
2018-10-05T23:28:24.661Z,10.50
2018-10-05T23:30:52.839Z,11.33
2018-10-05T23:33:21.007Z,11.70
2018-10-05T23:35:49.499Z,10.00
2018-10-05T23:38:17.671Z,10.83
2018-10-05T23:40:45.874Z,11.47
2018-10-05T23:43:14.051Z,9.73
2018-10-05T23:45:42.247Z,11.67
2018-10-05T23:48:10.427Z,8.83
2018-10-05T23:50:38.607Z,8.93
2018-10-05T23:53:06.786Z,8.80
2018-10-05T23:55:34.978Z,11.23
2018-10-05T23:58:03.162Z,10.87
